sensor_id;sensor_type;location;lat;lon;timestamp;P1;durP1;ratioP1;P2;durP2;ratioP2
46084;SDS011;31823;47.032;8.310;2023-05-23T00:00:02;15.95;;;11.55;;
46084;SDS011;31823;47.032;8.310;2023-05-23T00:02:28;21.50;;;11.48;;
46084;SDS011;31823;47.032;8.310;2023-05-23T00:04:54;16.00;;;12.25;;
46084;SDS011;31823;47.032;8.310;2023-05-23T00:07:22;22.35;;;12.85;;
46084;SDS011;31823;47.032;8.310;2023-05-23T00:09:48;18.15;;;12.00;;
46084;SDS011;31823;47.032;8.310;2023-05-23T00:12:13;14.75;;;10.20;;
46084;SDS011;31823;47.032;8.310;2023-05-23T00:14:39;15.13;;;11.35;;
46084;SDS011;31823;47.032;8.310;2023-05-23T00:17:04;14.82;;;10.77;;
46084;SDS011;31823;47.032;8.310;2023-05-23T00:19:31;14.68;;;11.15;;
46084;SDS011;31823;47.032;8.310;2023-05-23T00:22:00;15.15;;;11.35;;
46084;SDS011;31823;47.032;8.310;2023-05-23T00:24:25;18.50;;;11.80;;
46084;SDS011;31823;47.032;8.310;2023-05-23T00:26:51;17.20;;;12.40;;
46084;SDS011;31823;47.032;8.310;2023-05-23T00:29:16;22.27;;;12.60;;
46084;SDS011;31823;47.032;8.310;2023-05-23T00:31:42;16.63;;;11.35;;
46084;SDS011;31823;47.032;8.310;2023-05-23T00:34:10;21.27;;;11.88;;
46084;SDS011;31823;47.032;8.310;2023-05-23T00:36:39;16.08;;;11.27;;
46084;SDS011;31823;47.032;8.310;2023-05-23T00:39:07;14.88;;;11.05;;
46084;SDS011;31823;47.032;8.310;2023-05-23T00:41:33;15.50;;;10.77;;
46084;SDS011;31823;47.032;8.310;2023-05-23T00:44:00;16.90;;;11.35;;
46084;SDS011;31823;47.032;8.310;2023-05-23T00:46:26;14.98;;;10.98;;
46084;SDS011;31823;47.032;8.310;2023-05-23T00:48:52;21.25;;;12.07;;
46084;SDS011;31823;47.032;8.310;2023-05-23T00:51:19;20.02;;;12.57;;
46084;SDS011;31823;47.032;8.310;2023-05-23T00:53:44;17.50;;;11.30;;
46084;SDS011;31823;47.032;8.310;2023-05-23T00:56:10;15.32;;;10.10;;
46084;SDS011;31823;47.032;8.310;2023-05-23T00:58:36;16.88;;;11.07;;
46084;SDS011;31823;47.032;8.310;2023-05-23T01:01:03;15.18;;;10.85;;
46084;SDS011;31823;47.032;8.310;2023-05-23T01:03:29;16.45;;;10.57;;
46084;SDS011;31823;47.032;8.310;2023-05-23T01:05:55;16.27;;;10.55;;
46084;SDS011;31823;47.032;8.310;2023-05-23T01:08:21;13.80;;;10.38;;
46084;SDS011;31823;47.032;8.310;2023-05-23T01:10:46;22.00;;;11.00;;
46084;SDS011;31823;47.032;8.310;2023-05-23T01:16:12;16.33;;;11.13;;
46084;SDS011;31823;47.032;8.310;2023-05-23T01:18:52;17.65;;;11.50;;
46084;SDS011;31823;47.032;8.310;2023-05-23T01:21:47;14.30;;;10.45;;
46084;SDS011;31823;47.032;8.310;2023-05-23T01:24:26;18.00;;;10.85;;
46084;SDS011;31823;47.032;8.310;2023-05-23T01:27:19;14.73;;;9.88;;
46084;SDS011;31823;47.032;8.310;2023-05-23T01:30:12;17.38;;;11.45;;
46084;SDS011;31823;47.032;8.310;2023-05-23T01:32:43;13.90;;;10.52;;
46084;SDS011;31823;47.032;8.310;2023-05-23T01:35:10;20.42;;;11.38;;
46084;SDS011;31823;47.032;8.310;2023-05-23T01:37:36;17.75;;;10.95;;
46084;SDS011;31823;47.032;8.310;2023-05-23T01:40:01;21.30;;;11.32;;
46084;SDS011;31823;47.032;8.310;2023-05-23T01:42:27;19.55;;;12.00;;
46084;SDS011;31823;47.032;8.310;2023-05-23T01:44:53;18.02;;;12.00;;
46084;SDS011;31823;47.032;8.310;2023-05-23T01:47:19;19.20;;;11.90;;
46084;SDS011;31823;47.032;8.310;2023-05-23T01:49:46;17.95;;;11.43;;
46084;SDS011;31823;47.032;8.310;2023-05-23T01:52:12;18.58;;;11.80;;
46084;SDS011;31823;47.032;8.310;2023-05-23T01:54:39;17.92;;;11.57;;
46084;SDS011;31823;47.032;8.310;2023-05-23T01:57:06;18.00;;;12.88;;
46084;SDS011;31823;47.032;8.310;2023-05-23T01:59:31;17.95;;;11.35;;
46084;SDS011;31823;47.032;8.310;2023-05-23T02:01:57;17.77;;;11.75;;
46084;SDS011;31823;47.032;8.310;2023-05-23T02:04:23;17.50;;;11.27;;
46084;SDS011;31823;47.032;8.310;2023-05-23T02:06:48;17.20;;;10.88;;
46084;SDS011;31823;47.032;8.310;2023-05-23T02:09:14;20.83;;;12.63;;
46084;SDS011;31823;47.032;8.310;2023-05-23T02:11:40;18.35;;;11.25;;
46084;SDS011;31823;47.032;8.310;2023-05-23T02:14:06;17.85;;;11.20;;
46084;SDS011;31823;47.032;8.310;2023-05-23T02:16:31;16.67;;;11.55;;
46084;SDS011;31823;47.032;8.310;2023-05-23T02:19:00;15.13;;;10.35;;
46084;SDS011;31823;47.032;8.310;2023-05-23T02:21:25;15.60;;;10.98;;
46084;SDS011;31823;47.032;8.310;2023-05-23T02:23:51;16.35;;;11.07;;
46084;SDS011;31823;47.032;8.310;2023-05-23T02:26:16;25.15;;;12.60;;
46084;SDS011;31823;47.032;8.310;2023-05-23T02:28:42;18.55;;;11.93;;
46084;SDS011;31823;47.032;8.310;2023-05-23T02:31:08;18.30;;;12.05;;
46084;SDS011;31823;47.032;8.310;2023-05-23T02:33:33;16.98;;;11.75;;
46084;SDS011;31823;47.032;8.310;2023-05-23T02:35:59;17.13;;;12.07;;
46084;SDS011;31823;47.032;8.310;2023-05-23T02:38:26;17.98;;;11.27;;
46084;SDS011;31823;47.032;8.310;2023-05-23T02:40:51;24.88;;;12.30;;
46084;SDS011;31823;47.032;8.310;2023-05-23T02:43:18;16.25;;;11.65;;
46084;SDS011;31823;47.032;8.310;2023-05-23T02:45:44;17.33;;;11.55;;
46084;SDS011;31823;47.032;8.310;2023-05-23T02:48:09;15.00;;;10.52;;
46084;SDS011;31823;47.032;8.310;2023-05-23T02:50:36;25.50;;;11.38;;
46084;SDS011;31823;47.032;8.310;2023-05-23T02:53:01;15.25;;;10.45;;
46084;SDS011;31823;47.032;8.310;2023-05-23T02:55:27;15.80;;;10.95;;
46084;SDS011;31823;47.032;8.310;2023-05-23T02:57:53;15.65;;;10.05;;
46084;SDS011;31823;47.032;8.310;2023-05-23T03:00:18;13.82;;;9.65;;
46084;SDS011;31823;47.032;8.310;2023-05-23T03:02:44;15.27;;;10.00;;
46084;SDS011;31823;47.032;8.310;2023-05-23T03:05:09;14.55;;;10.75;;
46084;SDS011;31823;47.032;8.310;2023-05-23T03:07:35;14.32;;;10.05;;
46084;SDS011;31823;47.032;8.310;2023-05-23T03:10:01;15.27;;;10.65;;
46084;SDS011;31823;47.032;8.310;2023-05-23T03:12:26;15.93;;;11.02;;
46084;SDS011;31823;47.032;8.310;2023-05-23T03:14:53;17.92;;;10.68;;
46084;SDS011;31823;47.032;8.310;2023-05-23T03:17:18;15.38;;;10.68;;
46084;SDS011;31823;47.032;8.310;2023-05-23T03:19:44;16.98;;;10.82;;
46084;SDS011;31823;47.032;8.310;2023-05-23T03:22:09;22.10;;;11.52;;
46084;SDS011;31823;47.032;8.310;2023-05-23T03:24:35;17.10;;;11.05;;
46084;SDS011;31823;47.032;8.310;2023-05-23T03:27:00;16.27;;;10.38;;
46084;SDS011;31823;47.032;8.310;2023-05-23T03:29:27;14.70;;;10.70;;
46084;SDS011;31823;47.032;8.310;2023-05-23T03:31:52;15.43;;;10.63;;
46084;SDS011;31823;47.032;8.310;2023-05-23T03:34:18;14.90;;;9.90;;
46084;SDS011;31823;47.032;8.310;2023-05-23T03:36:43;16.65;;;10.55;;
46084;SDS011;31823;47.032;8.310;2023-05-23T03:39:09;15.93;;;10.63;;
46084;SDS011;31823;47.032;8.310;2023-05-23T03:41:35;16.33;;;10.38;;
46084;SDS011;31823;47.032;8.310;2023-05-23T03:44:00;17.60;;;10.80;;
46084;SDS011;31823;47.032;8.310;2023-05-23T03:46:26;16.58;;;11.88;;
46084;SDS011;31823;47.032;8.310;2023-05-23T03:48:51;17.13;;;12.05;;
46084;SDS011;31823;47.032;8.310;2023-05-23T03:51:17;18.50;;;11.50;;
46084;SDS011;31823;47.032;8.310;2023-05-23T03:53:42;15.30;;;11.25;;
46084;SDS011;31823;47.032;8.310;2023-05-23T03:56:08;21.15;;;11.93;;
46084;SDS011;31823;47.032;8.310;2023-05-23T03:58:33;16.98;;;11.38;;
46084;SDS011;31823;47.032;8.310;2023-05-23T04:00:59;16.83;;;11.10;;
46084;SDS011;31823;47.032;8.310;2023-05-23T04:03:25;15.55;;;10.05;;
46084;SDS011;31823;47.032;8.310;2023-05-23T04:05:51;17.42;;;11.10;;
46084;SDS011;31823;47.032;8.310;2023-05-23T04:08:17;21.63;;;11.40;;
46084;SDS011;31823;47.032;8.310;2023-05-23T04:10:45;20.80;;;13.00;;
46084;SDS011;31823;47.032;8.310;2023-05-23T04:13:11;16.70;;;11.90;;
46084;SDS011;31823;47.032;8.310;2023-05-23T04:15:37;20.92;;;12.43;;
46084;SDS011;31823;47.032;8.310;2023-05-23T04:18:03;20.33;;;11.65;;
46084;SDS011;31823;47.032;8.310;2023-05-23T04:20:29;18.52;;;12.45;;
46084;SDS011;31823;47.032;8.310;2023-05-23T04:22:55;20.33;;;12.32;;
46084;SDS011;31823;47.032;8.310;2023-05-23T04:25:20;24.35;;;11.70;;
46084;SDS011;31823;47.032;8.310;2023-05-23T04:27:46;18.73;;;11.73;;
46084;SDS011;31823;47.032;8.310;2023-05-23T04:30:12;20.15;;;11.07;;
46084;SDS011;31823;47.032;8.310;2023-05-23T04:32:37;17.90;;;11.32;;
46084;SDS011;31823;47.032;8.310;2023-05-23T04:35:04;18.55;;;12.65;;
46084;SDS011;31823;47.032;8.310;2023-05-23T04:37:29;17.85;;;11.13;;
46084;SDS011;31823;47.032;8.310;2023-05-23T04:39:57;15.52;;;9.80;;
46084;SDS011;31823;47.032;8.310;2023-05-23T04:42:24;18.77;;;10.60;;
46084;SDS011;31823;47.032;8.310;2023-05-23T04:44:50;17.10;;;11.82;;
46084;SDS011;31823;47.032;8.310;2023-05-23T04:47:16;13.98;;;10.50;;
46084;SDS011;31823;47.032;8.310;2023-05-23T04:49:43;15.73;;;10.93;;
46084;SDS011;31823;47.032;8.310;2023-05-23T04:52:09;14.60;;;10.18;;
46084;SDS011;31823;47.032;8.310;2023-05-23T04:54:34;15.27;;;10.95;;
46084;SDS011;31823;47.032;8.310;2023-05-23T04:57:01;15.23;;;10.55;;
46084;SDS011;31823;47.032;8.310;2023-05-23T04:59:27;18.55;;;12.75;;
46084;SDS011;31823;47.032;8.310;2023-05-23T05:01:52;19.15;;;12.55;;
46084;SDS011;31823;47.032;8.310;2023-05-23T05:04:18;15.65;;;11.05;;
46084;SDS011;31823;47.032;8.310;2023-05-23T05:06:43;16.10;;;11.13;;
46084;SDS011;31823;47.032;8.310;2023-05-23T05:09:09;17.67;;;11.55;;
46084;SDS011;31823;47.032;8.310;2023-05-23T05:11:35;16.88;;;11.55;;
46084;SDS011;31823;47.032;8.310;2023-05-23T05:14:00;18.85;;;11.95;;
46084;SDS011;31823;47.032;8.310;2023-05-23T05:16:26;15.98;;;11.15;;
46084;SDS011;31823;47.032;8.310;2023-05-23T05:18:51;17.27;;;10.77;;
46084;SDS011;31823;47.032;8.310;2023-05-23T05:21:17;19.83;;;12.18;;
46084;SDS011;31823;47.032;8.310;2023-05-23T05:23:42;17.55;;;12.00;;
46084;SDS011;31823;47.032;8.310;2023-05-23T05:26:08;18.77;;;12.45;;
46084;SDS011;31823;47.032;8.310;2023-05-23T05:28:34;20.17;;;12.55;;
46084;SDS011;31823;47.032;8.310;2023-05-23T05:31:00;21.15;;;14.38;;
46084;SDS011;31823;47.032;8.310;2023-05-23T05:33:29;15.63;;;10.63;;
46084;SDS011;31823;47.032;8.310;2023-05-23T05:35:59;17.15;;;11.10;;
46084;SDS011;31823;47.032;8.310;2023-05-23T05:38:28;18.63;;;11.80;;
46084;SDS011;31823;47.032;8.310;2023-05-23T05:40:53;14.93;;;11.32;;
46084;SDS011;31823;47.032;8.310;2023-05-23T05:43:19;21.80;;;12.23;;
46084;SDS011;31823;47.032;8.310;2023-05-23T05:45:45;15.05;;;11.00;;
46084;SDS011;31823;47.032;8.310;2023-05-23T05:48:10;15.77;;;11.63;;
46084;SDS011;31823;47.032;8.310;2023-05-23T05:50:36;26.52;;;12.20;;
46084;SDS011;31823;47.032;8.310;2023-05-23T05:53:01;17.35;;;11.88;;
46084;SDS011;31823;47.032;8.310;2023-05-23T05:55:27;20.38;;;13.27;;
46084;SDS011;31823;47.032;8.310;2023-05-23T05:57:53;17.48;;;12.80;;
46084;SDS011;31823;47.032;8.310;2023-05-23T06:00:19;19.95;;;12.40;;
46084;SDS011;31823;47.032;8.310;2023-05-23T06:02:45;16.55;;;12.68;;
46084;SDS011;31823;47.032;8.310;2023-05-23T06:05:11;17.00;;;11.90;;
46084;SDS011;31823;47.032;8.310;2023-05-23T06:07:38;18.15;;;11.88;;
46084;SDS011;31823;47.032;8.310;2023-05-23T06:10:04;16.98;;;11.82;;
46084;SDS011;31823;47.032;8.310;2023-05-23T06:12:31;21.15;;;13.90;;
46084;SDS011;31823;47.032;8.310;2023-05-23T06:14:57;17.35;;;13.05;;
46084;SDS011;31823;47.032;8.310;2023-05-23T06:17:22;17.48;;;12.77;;
46084;SDS011;31823;47.032;8.310;2023-05-23T06:19:48;16.67;;;12.13;;
46084;SDS011;31823;47.032;8.310;2023-05-23T06:22:13;15.77;;;12.30;;
46084;SDS011;31823;47.032;8.310;2023-05-23T06:24:39;20.35;;;13.07;;
46084;SDS011;31823;47.032;8.310;2023-05-23T06:27:04;18.38;;;12.98;;
46084;SDS011;31823;47.032;8.310;2023-05-23T06:29:30;17.27;;;12.27;;
46084;SDS011;31823;47.032;8.310;2023-05-23T06:31:56;17.65;;;13.10;;
46084;SDS011;31823;47.032;8.310;2023-05-23T06:34:21;18.80;;;13.50;;
46084;SDS011;31823;47.032;8.310;2023-05-23T06:36:47;19.75;;;13.27;;
46084;SDS011;31823;47.032;8.310;2023-05-23T06:39:13;18.23;;;13.55;;
46084;SDS011;31823;47.032;8.310;2023-05-23T06:41:39;20.73;;;13.68;;
46084;SDS011;31823;47.032;8.310;2023-05-23T06:44:05;16.67;;;12.60;;
46084;SDS011;31823;47.032;8.310;2023-05-23T06:46:30;19.00;;;12.57;;
46084;SDS011;31823;47.032;8.310;2023-05-23T06:48:56;17.48;;;13.07;;
46084;SDS011;31823;47.032;8.310;2023-05-23T06:51:21;16.00;;;12.18;;
46084;SDS011;31823;47.032;8.310;2023-05-23T06:53:47;18.70;;;12.27;;
46084;SDS011;31823;47.032;8.310;2023-05-23T06:56:13;16.88;;;10.90;;
46084;SDS011;31823;47.032;8.310;2023-05-23T06:58:38;17.08;;;12.38;;
46084;SDS011;31823;47.032;8.310;2023-05-23T07:01:04;16.05;;;11.85;;
46084;SDS011;31823;47.032;8.310;2023-05-23T07:03:30;20.02;;;11.52;;
46084;SDS011;31823;47.032;8.310;2023-05-23T07:05:55;16.50;;;11.52;;
46084;SDS011;31823;47.032;8.310;2023-05-23T07:08:21;17.25;;;11.63;;
46084;SDS011;31823;47.032;8.310;2023-05-23T07:10:46;15.88;;;10.30;;
46084;SDS011;31823;47.032;8.310;2023-05-23T07:13:12;13.32;;;10.35;;
46084;SDS011;31823;47.032;8.310;2023-05-23T07:15:37;13.65;;;10.02;;
46084;SDS011;31823;47.032;8.310;2023-05-23T07:18:03;13.73;;;10.25;;
46084;SDS011;31823;47.032;8.310;2023-05-23T07:20:28;12.43;;;9.52;;
46084;SDS011;31823;47.032;8.310;2023-05-23T07:22:54;15.05;;;10.18;;
46084;SDS011;31823;47.032;8.310;2023-05-23T07:25:21;14.80;;;11.05;;
46084;SDS011;31823;47.032;8.310;2023-05-23T07:27:47;19.95;;;10.50;;
46084;SDS011;31823;47.032;8.310;2023-05-23T07:30:12;16.02;;;10.35;;
46084;SDS011;31823;47.032;8.310;2023-05-23T07:32:38;15.38;;;10.18;;
46084;SDS011;31823;47.032;8.310;2023-05-23T07:35:04;18.08;;;10.77;;
46084;SDS011;31823;47.032;8.310;2023-05-23T07:37:30;14.85;;;11.65;;
46084;SDS011;31823;47.032;8.310;2023-05-23T07:39:56;16.65;;;11.52;;
46084;SDS011;31823;47.032;8.310;2023-05-23T07:42:21;17.77;;;12.10;;
46084;SDS011;31823;47.032;8.310;2023-05-23T07:44:47;16.15;;;12.52;;
46084;SDS011;31823;47.032;8.310;2023-05-23T07:47:12;18.30;;;12.43;;
46084;SDS011;31823;47.032;8.310;2023-05-23T07:49:38;15.98;;;11.40;;
46084;SDS011;31823;47.032;8.310;2023-05-23T07:52:03;18.48;;;12.38;;
46084;SDS011;31823;47.032;8.310;2023-05-23T07:54:29;18.73;;;13.27;;
46084;SDS011;31823;47.032;8.310;2023-05-23T07:56:54;14.75;;;12.18;;
46084;SDS011;31823;47.032;8.310;2023-05-23T07:59:20;16.20;;;12.38;;
46084;SDS011;31823;47.032;8.310;2023-05-23T08:01:46;16.83;;;12.68;;
46084;SDS011;31823;47.032;8.310;2023-05-23T08:04:14;16.65;;;12.07;;
46084;SDS011;31823;47.032;8.310;2023-05-23T08:06:40;16.55;;;12.07;;
46084;SDS011;31823;47.032;8.310;2023-05-23T08:09:06;18.05;;;13.27;;
46084;SDS011;31823;47.032;8.310;2023-05-23T08:11:31;22.73;;;13.88;;
46084;SDS011;31823;47.032;8.310;2023-05-23T08:13:57;16.52;;;12.18;;
46084;SDS011;31823;47.032;8.310;2023-05-23T08:16:23;19.10;;;12.88;;
46084;SDS011;31823;47.032;8.310;2023-05-23T08:18:50;16.35;;;12.38;;
46084;SDS011;31823;47.032;8.310;2023-05-23T08:21:15;18.90;;;13.15;;
46084;SDS011;31823;47.032;8.310;2023-05-23T08:23:41;18.52;;;12.68;;
46084;SDS011;31823;47.032;8.310;2023-05-23T08:26:07;21.08;;;13.35;;
46084;SDS011;31823;47.032;8.310;2023-05-23T08:28:32;18.08;;;13.07;;
46084;SDS011;31823;47.032;8.310;2023-05-23T08:30:58;21.48;;;12.90;;
46084;SDS011;31823;47.032;8.310;2023-05-23T08:33:24;18.02;;;13.60;;
46084;SDS011;31823;47.032;8.310;2023-05-23T08:35:50;17.20;;;12.98;;
46084;SDS011;31823;47.032;8.310;2023-05-23T08:38:16;23.08;;;14.82;;
46084;SDS011;31823;47.032;8.310;2023-05-23T08:40:42;18.60;;;13.45;;
46084;SDS011;31823;47.032;8.310;2023-05-23T08:43:15;20.85;;;15.00;;
46084;SDS011;31823;47.032;8.310;2023-05-23T08:45:40;20.27;;;14.63;;
46084;SDS011;31823;47.032;8.310;2023-05-23T08:48:07;19.95;;;14.05;;
46084;SDS011;31823;47.032;8.310;2023-05-23T08:50:37;22.90;;;15.57;;
46084;SDS011;31823;47.032;8.310;2023-05-23T08:53:04;19.63;;;14.57;;
46084;SDS011;31823;47.032;8.310;2023-05-23T08:55:32;20.85;;;14.68;;
46084;SDS011;31823;47.032;8.310;2023-05-23T08:57:58;23.48;;;16.52;;
46084;SDS011;31823;47.032;8.310;2023-05-23T09:00:24;19.10;;;14.13;;
46084;SDS011;31823;47.032;8.310;2023-05-23T09:02:50;20.40;;;14.05;;
46084;SDS011;31823;47.032;8.310;2023-05-23T09:05:18;21.67;;;15.07;;
46084;SDS011;31823;47.032;8.310;2023-05-23T09:07:44;76.22;;;23.42;;
46084;SDS011;31823;47.032;8.310;2023-05-23T09:10:15;29.38;;;15.93;;
46084;SDS011;31823;47.032;8.310;2023-05-23T09:12:41;19.75;;;14.43;;
46084;SDS011;31823;47.032;8.310;2023-05-23T09:15:07;19.98;;;14.50;;
46084;SDS011;31823;47.032;8.310;2023-05-23T09:17:35;19.27;;;14.13;;
46084;SDS011;31823;47.032;8.310;2023-05-23T09:20:02;22.45;;;13.50;;
46084;SDS011;31823;47.032;8.310;2023-05-23T09:22:30;25.92;;;15.27;;
46084;SDS011;31823;47.032;8.310;2023-05-23T09:24:56;26.83;;;16.33;;
46084;SDS011;31823;47.032;8.310;2023-05-23T09:27:22;19.15;;;13.43;;
46084;SDS011;31823;47.032;8.310;2023-05-23T09:29:48;17.33;;;12.80;;
46084;SDS011;31823;47.032;8.310;2023-05-23T09:32:15;19.30;;;14.25;;
46084;SDS011;31823;47.032;8.310;2023-05-23T09:34:54;19.95;;;14.65;;
46084;SDS011;31823;47.032;8.310;2023-05-23T09:37:22;21.98;;;15.18;;
46084;SDS011;31823;47.032;8.310;2023-05-23T09:39:53;23.27;;;14.80;;
46084;SDS011;31823;47.032;8.310;2023-05-23T09:42:19;21.05;;;14.82;;
46084;SDS011;31823;47.032;8.310;2023-05-23T09:44:46;20.70;;;14.18;;
46084;SDS011;31823;47.032;8.310;2023-05-23T09:47:14;19.60;;;15.45;;
46084;SDS011;31823;47.032;8.310;2023-05-23T09:49:40;21.70;;;14.50;;
46084;SDS011;31823;47.032;8.310;2023-05-23T09:52:07;21.13;;;14.15;;
46084;SDS011;31823;47.032;8.310;2023-05-23T09:54:33;22.05;;;14.13;;
46084;SDS011;31823;47.032;8.310;2023-05-23T09:56:58;20.02;;;13.77;;
46084;SDS011;31823;47.032;8.310;2023-05-23T09:59:30;17.75;;;13.27;;
46084;SDS011;31823;47.032;8.310;2023-05-23T10:01:57;19.10;;;13.20;;
46084;SDS011;31823;47.032;8.310;2023-05-23T10:04:26;19.88;;;14.73;;
46084;SDS011;31823;47.032;8.310;2023-05-23T10:07:00;23.13;;;15.57;;
46084;SDS011;31823;47.032;8.310;2023-05-23T10:09:32;18.00;;;14.45;;
46084;SDS011;31823;47.032;8.310;2023-05-23T10:14:44;17.77;;;13.30;;
46084;SDS011;31823;47.032;8.310;2023-05-23T10:18:06;20.67;;;15.00;;
46084;SDS011;31823;47.032;8.310;2023-05-23T10:20:24;21.50;;;16.25;;
46084;SDS011;31823;47.032;8.310;2023-05-23T10:22:52;20.38;;;15.57;;
46084;SDS011;31823;47.032;8.310;2023-05-23T10:25:20;21.45;;;16.05;;
46084;SDS011;31823;47.032;8.310;2023-05-23T10:27:46;23.88;;;16.08;;
46084;SDS011;31823;47.032;8.310;2023-05-23T10:30:13;22.70;;;16.90;;
46084;SDS011;31823;47.032;8.310;2023-05-23T10:32:39;20.48;;;14.88;;
46084;SDS011;31823;47.032;8.310;2023-05-23T10:35:11;22.52;;;15.55;;
46084;SDS011;31823;47.032;8.310;2023-05-23T10:41:00;21.45;;;15.93;;
46084;SDS011;31823;47.032;8.310;2023-05-23T10:43:41;21.48;;;15.30;;
46084;SDS011;31823;47.032;8.310;2023-05-23T10:46:19;22.38;;;15.60;;
46084;SDS011;31823;47.032;8.310;2023-05-23T10:48:50;20.33;;;15.98;;
46084;SDS011;31823;47.032;8.310;2023-05-23T10:51:21;24.40;;;16.98;;
46084;SDS011;31823;47.032;8.310;2023-05-23T10:53:49;21.77;;;16.85;;
46084;SDS011;31823;47.032;8.310;2023-05-23T10:56:21;21.55;;;16.05;;
46084;SDS011;31823;47.032;8.310;2023-05-23T10:58:54;23.10;;;17.13;;
46084;SDS011;31823;47.032;8.310;2023-05-23T11:01:20;26.67;;;19.00;;
46084;SDS011;31823;47.032;8.310;2023-05-23T11:06:31;27.60;;;20.35;;
46084;SDS011;31823;47.032;8.310;2023-05-23T11:09:16;29.15;;;20.52;;
46084;SDS011;31823;47.032;8.310;2023-05-23T11:14:18;31.38;;;22.98;;
46084;SDS011;31823;47.032;8.310;2023-05-23T11:16:44;30.45;;;21.98;;
46084;SDS011;31823;47.032;8.310;2023-05-23T11:24:21;31.98;;;21.83;;
46084;SDS011;31823;47.032;8.310;2023-05-23T11:26:57;30.67;;;20.73;;
46084;SDS011;31823;47.032;8.310;2023-05-23T11:29:29;31.50;;;22.60;;
46084;SDS011;31823;47.032;8.310;2023-05-23T11:31:55;34.33;;;24.65;;
46084;SDS011;31823;47.032;8.310;2023-05-23T11:34:24;33.88;;;24.05;;
46084;SDS011;31823;47.032;8.310;2023-05-23T11:36:53;30.95;;;21.42;;
46084;SDS011;31823;47.032;8.310;2023-05-23T11:39:19;37.00;;;21.63;;
46084;SDS011;31823;47.032;8.310;2023-05-23T11:41:49;31.60;;;22.88;;
46084;SDS011;31823;47.032;8.310;2023-05-23T11:44:24;29.33;;;20.38;;
46084;SDS011;31823;47.032;8.310;2023-05-23T11:47:02;29.13;;;21.73;;
46084;SDS011;31823;47.032;8.310;2023-05-23T11:49:30;30.55;;;22.42;;
46084;SDS011;31823;47.032;8.310;2023-05-23T11:52:01;28.65;;;21.23;;
46084;SDS011;31823;47.032;8.310;2023-05-23T11:54:27;29.98;;;21.80;;
46084;SDS011;31823;47.032;8.310;2023-05-23T11:56:53;28.67;;;21.65;;
46084;SDS011;31823;47.032;8.310;2023-05-23T11:59:23;32.80;;;22.40;;
46084;SDS011;31823;47.032;8.310;2023-05-23T12:01:50;32.58;;;22.70;;
46084;SDS011;31823;47.032;8.310;2023-05-23T12:04:16;33.20;;;21.92;;
46084;SDS011;31823;47.032;8.310;2023-05-23T12:06:44;30.10;;;21.60;;
46084;SDS011;31823;47.032;8.310;2023-05-23T12:09:11;27.30;;;20.35;;
46084;SDS011;31823;47.032;8.310;2023-05-23T12:11:37;25.52;;;18.80;;
46084;SDS011;31823;47.032;8.310;2023-05-23T12:14:05;24.55;;;18.20;;
46084;SDS011;31823;47.032;8.310;2023-05-23T12:16:32;26.95;;;18.13;;
46084;SDS011;31823;47.032;8.310;2023-05-23T12:18:58;22.00;;;17.40;;
46084;SDS011;31823;47.032;8.310;2023-05-23T12:21:46;24.05;;;16.38;;
46084;SDS011;31823;47.032;8.310;2023-05-23T12:24:19;22.88;;;18.40;;
46084;SDS011;31823;47.032;8.310;2023-05-23T12:26:46;26.02;;;17.70;;
46084;SDS011;31823;47.032;8.310;2023-05-23T12:29:13;23.98;;;17.83;;
46084;SDS011;31823;47.032;8.310;2023-05-23T12:31:40;24.80;;;17.38;;
46084;SDS011;31823;47.032;8.310;2023-05-23T12:34:05;95.50;;;37.83;;
46084;SDS011;31823;47.032;8.310;2023-05-23T12:36:31;20.92;;;16.05;;
46084;SDS011;31823;47.032;8.310;2023-05-23T12:39:04;18.42;;;14.60;;
46084;SDS011;31823;47.032;8.310;2023-05-23T12:41:31;23.60;;;16.75;;
46084;SDS011;31823;47.032;8.310;2023-05-23T12:43:57;19.85;;;15.70;;
46084;SDS011;31823;47.032;8.310;2023-05-23T12:46:23;30.63;;;18.55;;
46084;SDS011;31823;47.032;8.310;2023-05-23T12:48:50;42.33;;;21.75;;
46084;SDS011;31823;47.032;8.310;2023-05-23T12:51:16;26.15;;;16.02;;
46084;SDS011;31823;47.032;8.310;2023-05-23T12:53:42;20.20;;;14.82;;
46084;SDS011;31823;47.032;8.310;2023-05-23T12:56:08;29.65;;;16.98;;
46084;SDS011;31823;47.032;8.310;2023-05-23T12:58:34;21.60;;;16.08;;
46084;SDS011;31823;47.032;8.310;2023-05-23T13:00:59;21.42;;;14.70;;
46084;SDS011;31823;47.032;8.310;2023-05-23T13:03:27;16.92;;;14.13;;
46084;SDS011;31823;47.032;8.310;2023-05-23T13:05:55;20.10;;;15.30;;
46084;SDS011;31823;47.032;8.310;2023-05-23T13:08:21;23.08;;;14.60;;
46084;SDS011;31823;47.032;8.310;2023-05-23T13:10:47;24.17;;;15.13;;
46084;SDS011;31823;47.032;8.310;2023-05-23T13:13:13;24.48;;;15.77;;
46084;SDS011;31823;47.032;8.310;2023-05-23T13:15:39;22.30;;;15.95;;
46084;SDS011;31823;47.032;8.310;2023-05-23T13:18:05;18.20;;;15.10;;
46084;SDS011;31823;47.032;8.310;2023-05-23T13:20:30;19.88;;;14.82;;
46084;SDS011;31823;47.032;8.310;2023-05-23T13:22:56;17.05;;;13.73;;
46084;SDS011;31823;47.032;8.310;2023-05-23T13:25:23;16.73;;;12.80;;
46084;SDS011;31823;47.032;8.310;2023-05-23T13:27:49;16.65;;;13.07;;
46084;SDS011;31823;47.032;8.310;2023-05-23T13:30:15;16.80;;;13.73;;
46084;SDS011;31823;47.032;8.310;2023-05-23T13:32:41;17.55;;;12.90;;
46084;SDS011;31823;47.032;8.310;2023-05-23T13:35:07;17.05;;;13.20;;
46084;SDS011;31823;47.032;8.310;2023-05-23T13:37:32;16.77;;;12.90;;
46084;SDS011;31823;47.032;8.310;2023-05-23T13:40:00;18.20;;;13.65;;
46084;SDS011;31823;47.032;8.310;2023-05-23T13:42:27;21.67;;;14.57;;
46084;SDS011;31823;47.032;8.310;2023-05-23T13:44:52;20.75;;;14.13;;
46084;SDS011;31823;47.032;8.310;2023-05-23T13:47:18;17.77;;;13.57;;
46084;SDS011;31823;47.032;8.310;2023-05-23T13:49:44;22.35;;;15.75;;
46084;SDS011;31823;47.032;8.310;2023-05-23T13:52:09;21.25;;;16.13;;
46084;SDS011;31823;47.032;8.310;2023-05-23T13:54:35;20.05;;;15.50;;
46084;SDS011;31823;47.032;8.310;2023-05-23T13:57:01;24.30;;;16.85;;
46084;SDS011;31823;47.032;8.310;2023-05-23T13:59:26;22.02;;;15.52;;
46084;SDS011;31823;47.032;8.310;2023-05-23T14:01:52;23.52;;;15.80;;
46084;SDS011;31823;47.032;8.310;2023-05-23T14:04:18;21.65;;;14.98;;
46084;SDS011;31823;47.032;8.310;2023-05-23T14:06:44;20.25;;;15.20;;
46084;SDS011;31823;47.032;8.310;2023-05-23T14:09:09;20.95;;;14.57;;
46084;SDS011;31823;47.032;8.310;2023-05-23T14:11:36;16.95;;;12.73;;
46084;SDS011;31823;47.032;8.310;2023-05-23T14:14:02;19.77;;;14.75;;
46084;SDS011;31823;47.032;8.310;2023-05-23T14:16:28;18.67;;;14.73;;
46084;SDS011;31823;47.032;8.310;2023-05-23T14:18:54;20.85;;;15.13;;
46084;SDS011;31823;47.032;8.310;2023-05-23T14:21:20;21.75;;;14.98;;
46084;SDS011;31823;47.032;8.310;2023-05-23T14:23:45;20.02;;;15.40;;
46084;SDS011;31823;47.032;8.310;2023-05-23T14:26:11;23.50;;;15.60;;
46084;SDS011;31823;47.032;8.310;2023-05-23T14:28:36;23.23;;;16.77;;
46084;SDS011;31823;47.032;8.310;2023-05-23T14:31:02;26.25;;;17.33;;
46084;SDS011;31823;47.032;8.310;2023-05-23T14:33:28;24.90;;;17.23;;
46084;SDS011;31823;47.032;8.310;2023-05-23T14:35:53;26.63;;;18.25;;
46084;SDS011;31823;47.032;8.310;2023-05-23T14:38:19;27.05;;;17.13;;